Time;durP1;ratioP1;P1;durP2;ratioP2;P2;SDS_P1;SDS_P2;PMS_P1;PMS_P2;Temp;Humidity;BMP_temperature;BMP_pressure;BME280_temperature;BME280_humidity;BME280_pressure;Samples;Min_cycle;Max_cycle;Signal;HPM_P1;HPM_P2
2023/03/12 00:00:54;;;;;;;6.15;3.20;;;;;;;21.45;44.75;100110.59;5074341;28;20053;-49
2023/03/12 00:03:21;;;;;;;5.03;2.78;;;;;;;21.46;44.86;100114.13;5074196;28;20048;-48
2023/03/12 00:05:48;;;;;;;3.88;2.42;;;;;;;21.45;44.89;100113.28;5074881;28;20368;-52
2023/03/12 00:08:15;;;;;;;6.45;3.17;;;;;;;21.45;44.71;100117.81;5074694;28;20045;-53
2023/03/12 00:10:43;;;;;;;5.07;2.60;;;;;;;21.45;44.73;100129.44;5074290;28;20048;-51
2023/03/12 00:13:10;;;;;;;6.13;2.78;;;;;;;21.44;44.80;100122.38;5074304;28;20375;-50
2023/03/12 00:15:38;;;;;;;4.43;2.45;;;;;;;21.45;44.74;100134.81;5074150;28;20459;-51
2023/03/12 00:18:05;;;;;;;6.20;2.80;;;;;;;21.44;44.79;100133.16;5074211;28;20044;-53
2023/03/12 00:20:33;;;;;;;5.10;3.15;;;;;;;21.44;44.80;100148.47;5074185;28;20478;-49
2023/03/12 00:23:00;;;;;;;7.40;2.70;;;;;;;21.44;44.85;100143.91;5073682;28;20052;-49
2023/03/12 00:25:27;;;;;;;4.93;2.67;;;;;;;21.44;44.72;100154.69;5074069;28;20055;-52
2023/03/12 00:27:55;;;;;;;4.30;2.65;;;;;;;21.43;44.71;100162.91;5074068;28;20048;-48
2023/03/12 00:30:22;;;;;;;6.10;2.40;;;;;;;21.43;44.77;100179.94;5073048;28;20048;-50
2023/03/12 00:32:49;;;;;;;4.32;2.20;;;;;;;21.44;44.66;100175.38;5073859;28;20044;-51
2023/03/12 00:35:17;;;;;;;3.42;2.13;;;;;;;21.44;44.81;100178.09;5073880;28;20041;-49
2023/03/12 00:38:05;;;;;;;5.47;2.53;;;;;;;21.43;44.73;100179.06;5073898;28;20056;-48
2023/03/12 00:40:31;;;;;;;4.78;2.65;;;;;;;21.43;44.70;100179.06;5072753;28;20059;-49
2023/03/12 00:42:59;;;;;;;6.20;2.88;;;;;;;21.43;44.76;100185.31;5073979;28;20056;-51
2023/03/12 00:45:26;;;;;;;5.35;2.42;;;;;;;21.44;44.70;100188.84;5073914;28;20506;-48
2023/03/12 00:47:54;;;;;;;4.20;2.25;;;;;;;21.43;44.68;100189.84;5073792;28;20036;-49
2023/03/12 00:50:21;;;;;;;8.65;2.85;;;;;;;21.43;44.69;100196.09;5073767;28;20052;-48
2023/03/12 00:52:49;;;;;;;6.53;2.78;;;;;;;21.43;44.62;100197.91;5073705;28;20041;-48
2023/03/12 00:55:16;;;;;;;5.30;2.55;;;;;;;21.42;44.58;100198.94;5072391;28;20049;-48
2023/03/12 00:57:43;;;;;;;6.47;2.20;;;;;;;21.41;44.65;100198.09;5072409;28;20052;-51
2023/03/12 01:00:12;;;;;;;4.18;2.58;;;;;;;21.42;44.67;100199.78;5073620;28;20055;-49
2023/03/12 01:02:39;;;;;;;4.28;2.15;;;;;;;21.42;44.66;100207.00;5073622;28;20476;-50
2023/03/12 01:05:09;;;;;;;6.55;2.38;;;;;;;21.43;44.61;100206.00;5073742;28;20063;-49
2023/03/12 01:07:36;;;;;;;4.00;2.35;;;;;;;21.41;44.62;100213.41;5074188;28;20076;-48
2023/03/12 01:10:24;;;;;;;5.07;2.70;;;;;;;21.42;44.50;100223.16;5073402;28;20055;-49
2023/03/12 01:12:51;;;;;;;6.05;2.20;;;;;;;21.41;44.50;100226.88;5072374;28;20052;-48
2023/03/12 01:15:19;;;;;;;3.83;2.08;;;;;;;21.41;44.48;100225.00;5073532;28;20059;-48
2023/03/12 01:17:46;;;;;;;6.57;2.85;;;;;;;21.41;44.42;100225.00;5073432;28;20055;-49
2023/03/12 01:20:13;;;;;;;5.32;1.88;;;;;;;21.39;44.47;100220.78;5072332;28;20059;-50
2023/03/12 01:22:41;;;;;;;4.32;2.33;;;;;;;21.40;44.44;100223.34;5073503;28;20479;-48
2023/03/12 01:25:08;;;;;;;7.53;2.20;;;;;;;21.40;44.43;100222.50;5073489;28;20059;-48
2023/03/12 01:27:36;;;;;;;6.97;2.40;;;;;;;21.40;44.58;100226.03;5073583;28;20052;-49
2023/03/12 01:30:04;;;;;;;5.05;2.53;;;;;;;21.40;44.43;100230.56;5073420;28;20413;-48
2023/03/12 01:32:31;;;;;;;5.65;2.42;;;;;;;21.39;44.64;100224.34;5073671;28;20055;-51
2023/03/12 01:34:59;;;;;;;4.32;2.45;;;;;;;21.39;44.56;100235.13;5075818;28;20045;-49
2023/03/12 01:37:27;;;;;;;5.25;2.97;;;;;;;21.38;44.56;100230.72;5077264;28;20491;-49
2023/03/12 01:39:55;;;;;;;3.35;2.38;;;;;;;21.39;44.54;100234.25;5076353;28;20056;-48
2023/03/12 01:42:22;;;;;;;5.40;2.40;;;;;;;21.38;44.45;100240.66;5077373;28;20052;-53
2023/03/12 01:45:03;;;;;;;3.72;2.70;;;;;;;21.38;44.54;100243.34;5076369;28;20057;-48
2023/03/12 01:47:32;;;;;;;3.53;2.05;;;;;;;21.38;44.49;100246.03;5076268;28;20548;-48
2023/03/12 01:50:04;;;;;;;3.95;2.90;;;;;;;21.38;44.59;100256.81;5076299;28;20059;-48
2023/03/12 01:52:35;;;;;;;5.15;2.65;;;;;;;21.38;44.52;100254.09;5075900;28;20060;-49
2023/03/12 01:55:11;;;;;;;4.25;2.30;;;;;;;21.37;44.57;100260.50;5075835;28;20045;-50
2023/03/12 01:57:50;;;;;;;4.32;2.53;;;;;;;21.38;44.66;100272.97;5075773;28;20411;-52
2023/03/12 02:00:22;;;;;;;4.43;2.63;;;;;;;21.38;44.59;100273.78;5076987;28;20056;-52
2023/03/12 02:02:53;;;;;;;4.87;2.67;;;;;;;21.37;44.47;100277.50;5076071;28;20052;-49
2023/03/12 02:05:27;;;;;;;5.47;2.40;;;;;;;21.37;44.51;100280.19;5075811;28;20051;-51
2023/03/12 02:07:56;;;;;;;3.45;2.38;;;;;;;21.37;44.50;100272.13;5075669;28;20060;-48
2023/03/12 02:10:24;;;;;;;5.22;2.72;;;;;;;21.38;44.51;100273.78;5076682;28;20048;-48
2023/03/12 02:12:52;;;;;;;4.38;2.30;;;;;;;21.37;44.46;100273.97;5075203;28;20056;-48
2023/03/12 02:15:20;;;;;;;5.40;2.40;;;;;;;21.37;44.40;100274.81;5077053;28;20047;-49
2023/03/12 02:17:48;;;;;;;7.75;2.33;;;;;;;21.37;44.51;100280.19;5076385;28;20375;-51
2023/03/12 02:20:44;;;;;;;3.38;2.20;;;;;;;21.37;44.43;100276.66;5076272;28;20051;-49
2023/03/12 02:23:20;;;;;;;4.40;2.58;;;;;;;21.37;44.47;100280.19;5076212;28;20463;-50
2023/03/12 02:25:53;;;;;;;4.53;2.40;;;;;;;21.37;44.41;100284.75;5076318;28;20048;-49
2023/03/12 02:28:24;;;;;;;7.97;2.23;;;;;;;21.37;44.55;100279.34;5076301;28;20510;-48
2023/03/12 02:30:55;;;;;;;3.28;1.95;;;;;;;21.36;44.46;100291.97;5076146;28;20059;-48
2023/03/12 02:33:23;;;;;;;5.82;2.55;;;;;;;21.36;44.69;100286.59;5075136;28;20056;-49
2023/03/12 02:35:51;;;;;;;4.78;2.00;;;;;;;21.36;44.53;100283.06;5074985;28;20049;-49
2023/03/12 02:38:43;;;;;;;3.88;2.20;;;;;;;21.37;44.53;100298.19;5075331;28;20048;-51
2023/03/12 02:41:32;;;;;;;5.95;2.60;;;;;;;21.36;44.54;100318.06;5076329;28;20081;-48
2023/03/12 02:44:21;;;;;;;4.35;1.75;;;;;;;21.36;44.58;100320.75;5075505;28;20648;-49
2023/03/12 02:46:51;;;;;;;3.10;1.90;;;;;;;;;;5074871;28;20056;-50
2023/03/12 02:49:21;;;;;;;6.15;2.17;;;;;;;21.36;44.68;100326.13;5076013;28;20044;-51
2023/03/12 02:51:48;;;;;;;5.63;2.45;;;;;;;21.36;44.66;100331.53;5075960;28;20399;-52
2023/03/12 02:54:17;;;;;;;6.45;2.60;;;;;;;;;;5075975;28;20048;-52
2023/03/12 02:56:44;;;;;;;4.40;2.22;;;;;;;21.36;44.64;100350.38;5075061;28;20399;-48
2023/03/12 02:59:13;;;;;;;5.03;2.08;;;;;;;21.35;44.74;100351.34;5075742;28;20048;-49
2023/03/12 03:01:42;;;;;;;3.50;2.30;;;;;;;21.35;44.74;100362.13;5074452;28;20059;-51
2023/03/12 03:04:11;;;;;;;5.47;2.13;;;;;;;21.35;44.69;100364.81;5074366;28;20056;-52
2023/03/12 03:06:41;;;;;;;3.58;2.00;;;;;;;21.33;44.70;100367.69;5074505;28;20052;-53
2023/03/12 03:09:09;;;;;;;3.92;2.17;;;;;;;21.34;44.78;100365.81;5074191;28;20059;-49
2023/03/12 03:11:36;;;;;;;3.92;2.25;;;;;;;21.33;44.74;100364.97;5074602;28;20119;-50
2023/03/12 03:14:05;;;;;;;3.67;2.00;;;;;;;21.33;44.81;100369.53;5074643;28;20048;-48
2023/03/12 03:16:34;;;;;;;5.25;2.58;;;;;;;21.33;44.70;100366.84;5074403;28;20415;-49
2023/03/12 03:19:01;;;;;;;7.53;2.65;;;;;;;21.33;44.70;100372.22;5074297;28;20056;-49
2023/03/12 03:21:29;;;;;;;6.65;2.42;;;;;;;21.32;44.77;100375.88;5075403;28;20048;-49
2023/03/12 03:23:57;;;;;;;4.53;1.98;;;;;;;21.32;44.86;100376.75;5074396;28;20064;-50
2023/03/12 03:26:24;;;;;;;5.97;2.72;;;;;;;21.32;44.74;100387.53;5075743;28;20064;-50
2023/03/12 03:28:52;;;;;;;3.65;2.03;;;;;;;21.32;44.66;100392.03;5057986;28;20060;-51
2023/03/12 03:31:20;;;;;;;4.68;2.20;;;;;;;21.33;44.71;100396.44;5074062;28;20052;-51
2023/03/12 03:33:48;;;;;;;4.80;2.20;;;;;;;21.32;44.85;100409.06;5075260;28;20478;-49
2023/03/12 03:36:17;;;;;;;4.78;2.42;;;;;;;21.31;44.84;100401.09;5073670;28;20406;-49
2023/03/12 03:38:56;;;;;;;4.30;2.53;;;;;;;21.32;44.89;100402.81;5075181;28;20052;-49
2023/03/12 03:41:24;;;;;;;3.15;2.30;;;;;;;21.31;44.76;100398.41;5074175;28;20059;-48
2023/03/12 03:43:57;;;;;;;3.55;2.15;;;;;;;21.31;44.79;100401.97;5074030;28;20411;-50
2023/03/12 03:46:25;;;;;;;4.53;2.10;;;;;;;21.32;44.81;100402.81;5057367;28;20053;-48
2023/03/12 03:48:59;;;;;;;3.97;2.10;;;;;;;21.31;44.89;100404.66;5073680;28;20044;-49
2023/03/12 03:51:27;;;;;;;5.35;2.28;;;;;;;21.31;44.85;100407.34;5073761;28;20049;-52
2023/03/12 03:53:59;;;;;;;3.58;1.90;;;;;;;21.31;44.79;100414.56;5073686;28;20048;-50
2023/03/12 03:56:27;;;;;;;3.80;2.03;;;;;;;21.31;44.91;100423.50;5073161;28;20044;-47
2023/03/12 03:58:57;;;;;;;4.75;2.47;;;;;;;21.31;44.81;100430.72;5073150;28;20064;-48
2023/03/12 04:01:26;;;;;;;5.60;2.20;;;;;;;21.32;44.81;100429.75;5073222;28;20406;-48
2023/03/12 04:03:54;;;;;;;4.20;2.13;;;;;;;21.31;44.89;100438.78;5073525;28;20064;-50
2023/03/12 04:06:22;;;;;;;5.05;2.53;;;;;;;21.31;44.83;100438.78;5074461;28;20064;-49
2023/03/12 04:08:50;;;;;;;4.85;2.60;;;;;;;21.31;44.77;100438.78;5073452;28;20060;-48
2023/03/12 04:11:21;;;;;;;5.53;2.53;;;;;;;21.31;44.75;100442.34;5073558;28;20060;-48
2023/03/12 04:13:49;;;;;;;3.83;2.13;;;;;;;21.30;44.84;100447.88;5074330;28;20052;-53
2023/03/12 04:16:20;;;;;;;5.80;2.60;;;;;;;21.31;44.84;100457.63;5072922;28;20053;-50
2023/03/12 04:18:49;;;;;;;3.95;1.90;;;;;;;21.32;44.70;100453.97;5072833;28;20048;-50
2023/03/12 04:21:17;;;;;;;6.82;2.22;;;;;;;21.32;44.97;100467.44;5073426;28;20131;-49
2023/03/12 04:23:47;;;;;;;3.88;2.03;;;;;;;21.32;44.91;100464.75;5074391;28;20068;-47
2023/03/12 04:26:16;;;;;;;3.45;1.83;;;;;;;21.31;44.85;100469.28;5073028;28;20048;-48
2023/03/12 04:28:43;;;;;;;5.35;2.45;;;;;;;21.32;44.91;100472.81;5073132;28;20093;-50
2023/03/12 04:31:11;;;;;;;7.82;2.40;;;;;;;21.32;44.98;100475.50;5073045;28;20051;-49
2023/03/12 04:33:43;;;;;;;4.88;3.08;;;;;;;21.31;45.09;100484.56;5072806;28;20052;-48
2023/03/12 04:36:12;;;;;;;5.00;2.25;;;;;;;21.31;45.02;100498.91;5073856;28;20037;-49
2023/03/12 04:38:42;;;;;;;4.63;2.10;;;;;;;21.31;45.14;100496.22;5073093;28;20057;-49
2023/03/12 04:41:30;;;;;;;3.92;2.20;;;;;;;21.30;45.00;100499.88;5064722;28;20052;-49
2023/03/12 04:44:06;;;;;;;3.85;2.65;;;;;;;21.30;45.23;100507.94;5073193;28;20059;-49
2023/03/12 04:46:35;;;;;;;4.47;2.47;;;;;;;21.30;44.96;100504.41;5072694;28;20044;-48
2023/03/12 04:49:03;;;;;;;3.22;2.42;;;;;;;21.30;45.15;100504.41;5072823;28;20048;-49
2023/03/12 04:51:33;;;;;;;5.68;2.50;;;;;;;21.30;45.07;100520.56;5072951;28;20061;-48
2023/03/12 04:54:03;;;;;;;4.00;2.30;;;;;;;21.30;45.05;100520.56;5072524;28;20044;-48
2023/03/12 04:56:31;;;;;;;4.45;2.22;;;;;;;21.29;44.77;100524.28;5072603;28;20371;-49
2023/03/12 04:58:58;;;;;;;4.32;2.20;;;;;;;21.28;44.93;100520.75;5072789;28;20048;-50
2023/03/12 05:01:31;;;;;;;4.03;2.35;;;;;;;21.28;45.06;100527.97;5072291;28;20052;-51
2023/03/12 05:03:58;;;;;;;6.03;2.53;;;;;;;21.29;44.97;100532.34;5072917;28;20049;-47
2023/03/12 05:06:26;;;;;;;4.22;2.22;;;;;;;21.29;44.96;100537.72;5072557;28;20044;-48
2023/03/12 05:08:55;;;;;;;3.67;1.98;;;;;;;21.28;44.93;100539.59;5071616;28;20049;-50
2023/03/12 05:11:24;;;;;;;4.95;2.22;;;;;;;21.28;45.01;100536.88;5072768;28;20052;-48
2023/03/12 05:13:52;;;;;;;5.43;2.88;;;;;;;21.27;44.89;100545.09;5073022;28;20060;-49
2023/03/12 05:16:20;;;;;;;4.82;2.47;;;;;;;21.27;45.10;100545.97;5073294;28;20463;-49
2023/03/12 05:18:47;;;;;;;5.40;2.65;;;;;;;21.27;45.08;100553.19;5073063;28;20053;-49
2023/03/12 05:21:18;;;;;;;4.78;2.75;;;;;;;21.28;44.91;100554.91;5073498;28;20382;-49
2023/03/12 05:23:47;;;;;;;4.43;2.60;;;;;;;21.27;44.93;100555.88;5072404;28;20052;-51
2023/03/12 05:26:25;;;;;;;5.47;2.38;;;;;;;21.27;44.93;100563.94;5072626;28;20494;-48
2023/03/12 05:28:59;;;;;;;5.13;2.20;;;;;;;21.27;44.99;100562.13;5072505;28;20048;-52
2023/03/12 05:31:31;;;;;;;6.22;2.42;;;;;;;21.26;45.06;100567.66;5072031;28;20053;-49
2023/03/12 05:34:04;;;;;;;4.93;2.97;;;;;;;21.27;44.97;100566.63;5072428;28;20048;-49
2023/03/12 05:36:34;;;;;;;4.40;2.25;;;;;;;21.27;44.82;100572.03;5072416;28;20045;-48
2023/03/12 05:39:02;;;;;;;5.20;2.65;;;;;;;21.27;44.70;100574.72;5072366;28;20048;-49
2023/03/12 05:41:31;;;;;;;3.60;2.35;;;;;;;21.26;44.83;100583.81;5072389;28;20475;-48
2023/03/12 05:44:05;;;;;;;4.47;2.42;;;;;;;21.27;44.78;100569.34;5072369;28;20048;-49
2023/03/12 05:46:34;;;;;;;5.22;2.38;;;;;;;21.26;44.76;100581.09;5072217;28;20048;-48
2023/03/12 05:49:02;;;;;;;4.63;2.55;;;;;;;21.26;44.63;100586.50;5072343;28;20491;-49
2023/03/12 05:51:31;;;;;;;5.55;2.35;;;;;;;21.25;44.69;100593.72;5072346;28;20059;-49
2023/03/12 05:53:59;;;;;;;3.83;2.20;;;;;;;21.26;44.70;100608.03;5072111;28;20048;-48
2023/03/12 05:56:27;;;;;;;4.57;2.42;;;;;;;21.24;44.87;100598.28;5073085;28;20478;-48
2023/03/12 05:58:55;;;;;;;3.22;2.22;;;;;;;21.25;44.81;100609.88;5071966;28;20045;-47
2023/03/12 06:01:25;;;;;;;4.43;2.53;;;;;;;21.25;44.63;100612.56;5071949;28;20063;-48
2023/03/12 06:03:55;;;;;;;3.40;2.53;;;;;;;21.23;44.83;100615.44;5071901;28;20048;-47
2023/03/12 06:06:24;;;;;;;3.70;2.38;;;;;;;21.24;44.77;100622.50;5072111;28;20483;-49
2023/03/12 06:08:53;;;;;;;3.72;2.30;;;;;;;21.24;44.62;100621.66;5073049;28;20474;-48
2023/03/12 06:11:20;;;;;;;3.95;2.17;;;;;;;21.23;44.63;100626.19;5071895;28;20048;-49
2023/03/12 06:13:47;;;;;;;4.47;2.58;;;;;;;21.24;44.58;100640.50;5071978;28;20044;-50
2023/03/12 06:16:18;;;;;;;4.47;2.20;;;;;;;21.23;44.70;100639.66;5072053;28;20059;-51
2023/03/12 06:18:46;;;;;;;4.50;2.17;;;;;;;21.22;44.56;100646.00;5071901;28;20059;-49
2023/03/12 06:21:18;;;;;;;4.95;2.28;;;;;;;21.22;44.69;100651.41;5074346;28;20391;-48
2023/03/12 06:23:46;;;;;;;4.47;2.10;;;;;;;21.22;44.56;100645.16;5075363;28;20060;-47
2023/03/12 06:26:20;;;;;;;4.03;2.50;;;;;;;21.22;44.62;100650.56;5075173;28;20052;-50
2023/03/12 06:28:49;;;;;;;5.00;2.38;;;;;;;21.21;44.44;100655.09;5076200;28;20537;-51
2023/03/12 06:31:17;;;;;;;3.78;2.78;;;;;;;21.21;44.89;100665.88;5076387;28;20048;-47
2023/03/12 06:33:44;;;;;;;5.50;3.10;;;;;;;21.22;44.60;100672.94;5076428;28;20048;-50
2023/03/12 06:36:12;;;;;;;4.93;2.25;;;;;;;21.22;44.60;100677.47;5076307;28;20040;-52
2023/03/12 06:38:40;;;;;;;3.13;1.73;;;;;;;21.21;44.63;100673.94;5075856;28;20044;-48
2023/03/12 06:41:13;;;;;;;3.70;2.28;;;;;;;21.21;44.62;100679.31;5075907;28;20544;-52
2023/03/12 06:43:41;;;;;;;3.58;2.22;;;;;;;21.21;44.63;100684.72;5076294;28;20048;-51
2023/03/12 06:46:12;;;;;;;4.03;2.30;;;;;;;21.21;44.63;100689.25;5074891;28;20044;-48
2023/03/12 06:48:40;;;;;;;4.05;2.42;;;;;;;21.21;44.71;100686.56;5076069;28;20478;-48
2023/03/12 06:51:09;;;;;;;4.25;2.35;;;;;;;21.21;44.55;100690.09;5076047;28;20479;-51
2023/03/12 06:53:37;;;;;;;3.67;2.42;;;;;;;21.20;44.44;100693.78;5074894;28;20045;-51
2023/03/12 06:56:09;;;;;;;3.55;2.45;;;;;;;21.20;44.57;100706.41;5075880;28;20055;-50
2023/03/12 06:58:37;;;;;;;3.35;1.98;;;;;;;21.19;44.62;100710.94;5075841;28;20041;-49
2023/03/12 07:01:07;;;;;;;3.03;2.08;;;;;;;21.20;44.62;100711.78;5075904;28;20505;-48
2023/03/12 07:03:35;;;;;;;4.13;2.17;;;;;;;21.19;44.70;100710.94;5075912;28;20067;-48
2023/03/12 07:06:03;;;;;;;3.42;2.15;;;;;;;21.19;44.56;100710.09;5075741;28;20041;-48
2023/03/12 07:08:30;;;;;;;3.42;2.28;;;;;;;21.19;44.54;100710.09;5075649;28;20048;-49
2023/03/12 07:10:59;;;;;;;5.78;2.50;;;;;;;21.19;44.59;100721.72;5075471;28;20072;-49
2023/03/12 07:13:29;;;;;;;5.15;2.63;;;;;;;21.19;44.65;100720.88;5075644;28;20052;-48
2023/03/12 07:15:56;;;;;;;3.40;1.95;;;;;;;21.18;44.69;100730.75;5075878;28;20406;-50
2023/03/12 07:18:24;;;;;;;3.20;2.17;;;;;;;21.19;44.65;100727.09;5075439;28;20040;-51
2023/03/12 07:21:11;;;;;;;6.80;2.40;;;;;;;21.19;44.67;100734.34;5075482;28;20509;-48
2023/03/12 07:23:39;;;;;;;6.00;2.30;;;;;;;21.18;44.59;100725.38;5074935;28;20048;-47
2023/03/12 07:26:06;;;;;;;2.70;1.98;;;;;;;21.19;44.51;100735.19;5075271;28;20060;-48
2023/03/12 07:28:34;;;;;;;3.92;2.42;;;;;;;21.19;44.72;100735.19;5075088;28;20048;-48
2023/03/12 07:31:03;;;;;;;5.40;2.22;;;;;;;21.19;44.61;100743.25;5074755;28;20470;-51
2023/03/12 07:33:31;;;;;;;3.28;2.10;;;;;;;21.20;44.54;100744.09;5074591;28;20119;-47
2023/03/12 07:35:59;;;;;;;4.55;2.40;;;;;;;21.19;44.57;100750.50;5075086;28;20041;-47
2023/03/12 07:38:26;;;;;;;4.18;2.22;;;;;;;21.19;44.67;100755.88;5075029;28;20371;-52
2023/03/12 07:40:55;;;;;;;3.40;1.85;;;;;;;21.18;44.70;100763.06;5074951;28;20495;-51
2023/03/12 07:43:44;;;;;;;4.90;2.60;;;;;;;21.19;44.68;100772.03;5075217;28;20044;-52
2023/03/12 07:46:12;;;;;;;3.88;1.80;;;;;;;21.19;44.70;100772.88;5075057;28;20387;-48
2023/03/12 07:48:39;;;;;;;3.15;1.80;;;;;;;21.20;44.50;100768.31;5074837;28;20045;-49
2023/03/12 07:51:10;;;;;;;4.95;2.20;;;;;;;21.19;44.68;100772.03;5074848;28;20044;-51
2023/03/12 07:53:37;;;;;;;3.83;2.20;;;;;;;21.19;44.58;100770.19;5074602;28;20049;-48
2023/03/12 07:56:05;;;;;;;3.33;2.10;;;;;;;21.18;44.55;100765.75;5074286;28;20106;-49
2023/03/12 07:58:35;;;;;;;3.13;2.00;;;;;;;21.18;44.54;100755.00;5074630;28;20423;-47
2023/03/12 08:01:02;;;;;;;2.65;1.90;;;;;;;21.19;44.52;100763.94;5074590;28;20048;-50
2023/03/12 08:03:30;;;;;;;5.72;2.28;;;;;;;21.19;44.56;100772.03;5074530;28;20482;-50
2023/03/12 08:06:00;;;;;;;3.47;2.05;;;;;;;21.18;44.62;100784.59;5074545;28;20367;-48
2023/03/12 08:08:30;;;;;;;4.63;2.17;;;;;;;21.17;44.63;100793.69;5073069;28;20059;-52
2023/03/12 08:11:02;;;;;;;4.45;2.42;;;;;;;21.18;44.63;100800.75;5074331;28;20044;-52
2023/03/12 08:13:30;;;;;;;5.43;2.33;;;;;;;21.18;44.68;100811.53;5074476;28;20402;-51
2023/03/12 08:15:57;;;;;;;4.80;2.08;;;;;;;21.18;44.78;100805.31;5074281;28;20048;-49
2023/03/12 08:18:25;;;;;;;3.47;2.30;;;;;;;21.18;44.78;100810.69;5074538;28;20041;-52
2023/03/12 08:20:53;;;;;;;3.35;2.10;;;;;;;21.18;44.92;100816.06;5074102;28;20041;-48
2023/03/12 08:23:21;;;;;;;3.03;1.85;;;;;;;21.18;44.80;100821.44;5073759;28;20047;-50
2023/03/12 08:25:49;;;;;;;3.50;1.75;;;;;;;21.18;44.88;100829.53;5074110;28;20463;-48
2023/03/12 08:28:18;;;;;;;5.05;2.20;;;;;;;21.18;44.90;100829.53;5074056;28;20047;-49
2023/03/12 08:30:53;;;;;;;6.28;2.15;;;;;;;21.19;44.74;100836.63;5074058;28;20376;-48
2023/03/12 08:33:21;;;;;;;3.95;2.25;;;;;;;21.18;44.79;100830.38;5074114;28;20064;-48
2023/03/12 08:35:48;;;;;;;4.32;1.73;;;;;;;21.18;44.84;100838.44;5074211;28;20063;-49
2023/03/12 08:38:16;;;;;;;3.78;2.10;;;;;;;21.18;44.85;100854.59;5073788;28;20134;-48
2023/03/12 08:40:44;;;;;;;5.50;2.30;;;;;;;21.18;44.83;100854.59;5073857;28;20459;-48
2023/03/12 08:43:11;;;;;;;4.28;2.20;;;;;;;21.18;45.10;100846.53;5073390;28;20047;-48
2023/03/12 08:45:39;;;;;;;5.07;2.20;;;;;;;21.20;45.27;100841.88;5074025;28;20049;-48
2023/03/12 08:48:07;;;;;;;6.47;2.22;;;;;;;21.18;43.23;100826.84;5073743;28;20119;-47
2023/03/12 08:50:34;;;;;;;5.22;2.33;;;;;;;21.01;41.40;100833.81;5073800;28;20055;-47
2023/03/12 08:53:01;;;;;;;4.60;2.35;;;;;;;20.85;42.22;100834.38;5073504;28;20044;-50
2023/03/12 08:55:29;;;;;;;7.00;2.40;;;;;;;20.70;42.54;100842.03;5073606;28;20040;-49
2023/03/12 08:57:56;;;;;;;6.80;2.33;;;;;;;20.65;43.09;100857.72;5071179;28;20049;-48
2023/03/12 09:00:24;;;;;;;3.65;1.80;;;;;;;20.65;43.99;100852.34;5061176;28;20375;-51
2023/03/12 09:02:52;;;;;;;3.85;1.90;;;;;;;20.70;44.91;100868.94;5064079;28;20052;-48
2023/03/12 09:05:20;;;;;;;8.45;2.75;;;;;;;20.74;45.06;100864.97;5060433;28;20111;-50
2023/03/12 09:07:48;;;;;;;5.18;2.58;;;;;;;20.79;44.25;100861.00;5052950;28;20510;-49
2023/03/12 09:10:16;;;;;;;5.28;2.42;;;;;;;20.83;43.99;100867.81;5051672;28;20041;-51
2023/03/12 09:12:44;;;;;;;5.00;2.00;;;;;;;20.83;43.79;100862.44;5052765;28;20479;-47
2023/03/12 09:15:11;;;;;;;7.80;2.58;;;;;;;20.85;44.17;100850.50;5053262;28;20056;-48
2023/03/12 09:17:39;;;;;;;4.90;1.83;;;;;;;20.87;44.04;100843.16;5052777;28;20514;-48
2023/03/12 09:20:12;;;;;;;6.93;2.38;;;;;;;20.91;44.30;100851.81;5052968;28;20052;-48
2023/03/12 09:22:40;;;;;;;7.55;2.40;;;;;;;20.94;44.57;100862.28;5053211;28;20048;-49
2023/03/12 09:25:09;;;;;;;5.72;2.10;;;;;;;20.96;44.54;100855.75;5052784;28;20053;-48
2023/03/12 09:27:46;;;;;;;6.40;1.95;;;;;;;20.98;44.63;100866.38;5053019;28;20407;-51
2023/03/12 09:30:16;;;;;;;8.07;2.30;;;;;;;20.99;44.73;100863.56;5053103;28;20041;-47
2023/03/12 09:32:44;;;;;;;3.63;1.77;;;;;;;21.02;44.69;100858.88;5065051;28;20048;-48
2023/03/12 09:35:14;;;;;;;7.90;2.05;;;;;;;21.05;44.58;100863.97;5068259;28;20079;-49
2023/03/12 09:37:41;;;;;;;5.70;2.22;;;;;;;21.07;44.73;100880.84;5072729;28;20044;-51
2023/03/12 09:40:17;;;;;;;6.00;2.10;;;;;;;21.08;44.96;100885.25;5072809;28;20045;-49
2023/03/12 09:42:57;;;;;;;5.00;2.10;;;;;;;21.10;45.03;100884.06;5072431;28;20052;-52
2023/03/12 09:45:27;;;;;;;5.65;1.83;;;;;;;21.11;44.63;100869.66;5055410;28;20049;-49
2023/03/12 09:47:59;;;;;;;7.30;1.92;;;;;;;21.11;44.67;100877.72;5052966;28;20045;-49
2023/03/12 09:50:32;;;;;;;6.20;2.20;;;;;;;21.13;44.90;100873.03;5052916;28;20045;-48
2023/03/12 09:53:10;;;;;;;5.95;1.90;;;;;;;21.15;44.89;100884.53;5057459;28;20047;-50
2023/03/12 09:55:41;;;;;;;6.65;1.90;;;;;;;21.14;44.73;100877.41;5073291;28;20052;-49
2023/03/12 09:58:16;;;;;;;4.95;2.30;;;;;;;21.15;44.79;100876.44;5076576;28;20040;-49
2023/03/12 10:00:44;;;;;;;8.95;2.55;;;;;;;21.15;44.89;100871.06;5076243;28;20051;-49
2023/03/12 10:03:49;;;;;;;5.88;2.15;;;;;;;21.17;44.74;100879.84;5076374;28;20041;-48
2023/03/12 10:06:25;;;;;;;4.60;1.97;;;;;;;21.17;44.66;100874.44;5074226;28;20075;-51
2023/03/12 10:09:17;;;;;;;8.25;1.90;;;;;;;21.18;44.74;100878.00;5071593;28;20056;-48
2023/03/12 10:12:30;;;;;;;4.35;1.85;;;;;;;21.19;45.01;100869.78;5053000;28;20049;-49
2023/03/12 10:15:14;;;;;;;9.30;1.98;;;;;;;21.19;45.00;100874.31;4955442;29;20055;-49
2023/03/12 10:18:07;;;;;;;5.53;1.63;;;;;;;21.19;44.93;100877.88;4955898;29;20441;-51
2023/03/12 10:21:12;;;;;;;4.75;2.13;;;;;;;21.19;44.86;100877.88;4975419;28;20063;-50
2023/03/12 10:23:58;;;;;;;5.63;2.03;;;;;;;21.20;45.02;100879.56;4975292;28;20051;-51
2023/03/12 10:26:52;;;;;;;3.63;1.60;;;;;;;21.21;44.98;100875.00;4974988;28;20159;-52
2023/03/12 10:29:27;;;;;;;6.43;1.88;;;;;;;21.22;44.96;100876.72;4973623;28;20061;-47
2023/03/12 10:32:15;;;;;;;3.80;1.48;;;;;;;21.22;45.07;100872.16;4974021;28;20062;-51
2023/03/12 10:34:49;;;;;;;4.68;1.90;;;;;;;21.22;44.93;100872.16;4974721;28;20408;-50
2023/03/12 10:37:21;;;;;;;7.40;2.03;;;;;;;21.22;44.86;100877.56;4974531;28;20055;-48
2023/03/12 10:39:49;;;;;;;5.88;1.80;;;;;;;21.23;45.32;100879.28;4974804;28;20058;-50
2023/03/12 10:42:20;;;;;;;5.50;2.28;;;;;;;21.24;45.33;100880.97;4981588;28;20055;-50
2023/03/12 10:44:55;;;;;;;8.18;1.90;;;;;;;21.25;45.38;100892.59;4978042;28;20497;-48
2023/03/12 10:47:42;;;;;;;7.50;2.13;;;;;;;21.26;45.27;100882.66;4993993;28;20097;-49
2023/03/12 10:50:19;;;;;;;6.88;2.58;;;;;;;21.25;44.62;100881.81;5052422;28;20051;-48
2023/03/12 10:52:48;;;;;;;6.53;2.13;;;;;;;21.24;45.33;100878.28;5055113;28;20056;-47
2023/03/12 10:55:28;;;;;;;6.50;2.17;;;;;;;21.24;45.04;100875.59;5055585;28;20044;-53
2023/03/12 10:57:56;;;;;;;8.88;2.28;;;;;;;21.26;45.21;100877.28;5055232;28;20076;-49
2023/03/12 11:00:26;;;;;;;4.82;2.10;;;;;;;21.28;45.17;100880.69;5054943;28;20045;-49
2023/03/12 11:03:02;;;;;;;9.90;2.45;;;;;;;21.27;45.03;100882.53;5055165;28;20049;-49
2023/03/12 11:05:33;;;;;;;6.03;2.70;;;;;;;21.33;45.22;100883.81;5055519;28;20361;-52
2023/03/12 11:08:03;;;;;;;4.47;2.03;;;;;;;21.35;45.08;100879.13;5055063;28;20375;-47
2023/03/12 11:10:36;;;;;;;7.47;2.03;;;;;;;;;;5054137;28;20045;-49
2023/03/12 11:13:03;;;;;;;;;;;;;;;;;;5072556;28;20426;-48
2023/03/12 11:15:42;;;;;;;4.95;2.13;;;;;;;21.37;44.98;100886.09;5074568;28;20385;-49
2023/03/12 11:18:24;;;;;;;4.68;2.17;;;;;;;21.38;45.01;100892.31;5066221;28;20064;-49
2023/03/12 11:21:10;;;;;;;10.13;2.65;;;;;;;21.38;44.32;100895.00;5055279;28;20045;-48
2023/03/12 11:24:06;;;;;;;7.97;2.22;;;;;;;21.36;44.33;100894.31;5054816;28;20049;-48
2023/03/12 11:26:45;;;;;;;9.23;4.80;;;;;;;;;;5054312;28;20061;-50
2023/03/12 11:29:27;;;;;;;8.15;4.57;;;;;;;;;;5054749;28;20037;-51
2023/03/12 11:32:14;;;;;;;9.77;4.43;;;;;;;21.35;45.03;100881.81;5053644;28;20052;-49
2023/03/12 11:34:46;;;;;;;11.40;5.30;;;;;;;21.36;45.11;100884.41;5054473;28;20056;-49
2023/03/12 11:37:29;;;;;;;12.10;5.50;;;;;;;21.36;45.11;100878.16;5054773;28;20399;-49
2023/03/12 11:40:34;;;;;;;7.35;3.30;;;;;;;21.36;45.07;100873.63;5052939;28;20052;-49
2023/03/12 11:43:27;;;;;;;11.52;4.63;;;;;;;21.36;45.20;100876.31;5054011;28;20487;-51
2023/03/12 11:46:26;;;;;;;11.48;6.38;;;;;;;21.37;44.63;100879.84;5054360;28;20060;-50
2023/03/12 11:49:33;;;;;;;11.77;6.28;;;;;;;21.36;44.71;100880.84;5053734;28;20045;-48